Time;durP1;ratioP1;P1;durP2;ratioP2;P2;SDS_P1;SDS_P2;PMS_P1;PMS_P2;Temp;Humidity;BMP_temperature;BMP_pressure;BME280_temperature;BME280_humidity;BME280_pressure;Samples;Min_cycle;Max_cycle;Signal;HPM_P1;HPM_P2
2021/10/18 00:00:56;;;;;;;20.45;7.97;;;;;;;-141.50;100.00;63355.56;4973326;28;20098;-80
2021/10/18 00:03:23;;;;;;;14.48;7.88;;;;;;;-141.50;100.00;63355.56;4955345;28;20039;-78
2021/10/18 00:05:50;;;;;;;15.98;8.00;;;;;;;-141.50;100.00;63355.56;4956050;28;20089;-78
2021/10/18 00:08:17;;;;;;;14.98;8.07;;;;;;;-141.50;100.00;63355.56;4939660;28;20516;-77
2021/10/18 00:10:43;;;;;;;15.77;8.02;;;;;;;-141.50;100.00;63355.56;4973509;28;20057;-79
2021/10/18 00:13:30;;;;;;;18.52;7.68;;;;;;;-141.50;100.00;63355.56;4958770;28;20050;-78
2021/10/18 00:15:57;;;;;;;15.30;7.45;;;;;;;-141.50;100.00;63355.56;4973778;28;20495;-79
2021/10/18 00:18:24;;;;;;;14.68;7.47;;;;;;;-141.50;100.00;63355.56;4973436;28;20435;-79
2021/10/18 00:20:50;;;;;;;16.08;7.80;;;;;;;-141.50;100.00;63355.56;4973839;28;20054;-79
2021/10/18 00:23:17;;;;;;;16.15;7.07;;;;;;;-141.50;100.00;63355.56;4973845;28;20046;-79
2021/10/18 00:25:44;;;;;;;11.43;6.43;;;;;;;-141.50;100.00;63355.56;4956368;28;20078;-80
2021/10/18 00:28:11;;;;;;;15.65;6.95;;;;;;;-141.50;100.00;63355.56;4973446;28;20050;-80
2021/10/18 00:30:38;;;;;;;12.65;7.43;;;;;;;-141.50;100.00;63355.56;4973465;28;20530;-80
2021/10/18 00:33:05;;;;;;;16.55;7.57;;;;;;;-141.50;100.00;63355.56;4955735;28;20051;-79
2021/10/18 00:35:33;;;;;;;16.65;7.68;;;;;;;-141.50;100.00;63355.56;4973401;28;20133;-78
2021/10/18 00:37:59;;;;;;;12.82;7.30;;;;;;;-141.50;100.00;63355.56;4955864;28;20042;-80
2021/10/18 00:40:26;;;;;;;14.80;7.45;;;;;;;-141.50;100.00;63355.56;4956730;28;20039;-79
2021/10/18 00:42:53;;;;;;;17.42;7.93;;;;;;;-141.50;100.00;63355.56;4939505;28;20101;-79
2021/10/18 00:45:21;;;;;;;19.65;7.40;;;;;;;-141.50;100.00;63355.56;4955249;28;20054;-78
2021/10/18 00:47:47;;;;;;;13.93;7.57;;;;;;;-141.50;100.00;63355.56;4972257;28;20054;-79
2021/10/18 00:50:14;;;;;;;12.07;7.22;;;;;;;-141.50;100.00;63355.56;4973376;28;20046;-77
2021/10/18 00:52:42;;;;;;;13.68;8.25;;;;;;;-141.50;100.00;63355.56;4955234;28;20105;-78
2021/10/18 00:55:09;;;;;;;14.13;8.25;;;;;;;-141.50;100.00;63355.56;4955562;28;20129;-79
2021/10/18 00:57:36;;;;;;;12.52;7.35;;;;;;;-141.50;100.00;63355.56;4971295;28;20046;-79
2021/10/18 01:00:06;;;;;;;13.30;8.05;;;;;;;-141.50;100.00;63355.56;4956311;28;20093;-79
2021/10/18 01:02:33;;;;;;;22.20;7.90;;;;;;;-141.50;100.00;63355.56;4955815;28;20046;-79
2021/10/18 01:05:00;;;;;;;16.38;7.95;;;;;;;-141.50;100.00;63355.56;4965770;23;20066;-84
2021/10/18 01:07:26;;;;;;;20.33;7.95;;;;;;;-141.50;100.00;63355.56;4952819;28;20051;-82
2021/10/18 01:09:53;;;;;;;16.13;8.05;;;;;;;-141.50;100.00;63355.56;4954073;28;20039;-83
2021/10/18 01:12:19;;;;;;;11.68;7.47;;;;;;;-141.50;100.00;63355.56;4953615;28;20047;-82
2021/10/18 01:14:46;;;;;;;16.23;7.55;;;;;;;-141.50;100.00;63355.56;4951955;29;20435;-83
2021/10/18 01:17:13;;;;;;;14.60;7.45;;;;;;;-141.50;100.00;63355.56;4954375;28;20050;-80
2021/10/18 01:19:39;;;;;;;14.20;8.32;;;;;;;-141.50;100.00;63355.56;4936910;29;20099;-80
2021/10/18 01:22:06;;;;;;;13.15;7.88;;;;;;;-141.50;100.00;63355.56;4954252;28;20066;-82
2021/10/18 01:24:34;;;;;;;12.25;6.95;;;;;;;-141.50;100.00;63355.56;4959146;28;20109;-83
2021/10/18 01:27:03;;;;;;;13.23;8.20;;;;;;;-141.50;100.00;63355.56;4950850;29;20048;-82
2021/10/18 01:29:36;;;;;;;13.27;7.70;;;;;;;-141.50;100.00;63355.56;4952067;28;20637;-81
2021/10/18 01:32:05;;;;;;;13.77;7.57;;;;;;;-141.50;100.00;63355.56;4953052;28;20066;-84
2021/10/18 01:34:31;;;;;;;16.50;7.30;;;;;;;-141.50;100.00;63355.56;4953160;28;20051;-83
2021/10/18 01:37:00;;;;;;;13.38;6.75;;;;;;;-141.50;100.00;63355.56;4951933;28;20066;-79
2021/10/18 01:39:28;;;;;;;12.70;7.20;;;;;;;-141.50;100.00;63355.56;4968210;29;20051;-79
2021/10/18 01:41:55;;;;;;;16.52;8.05;;;;;;;-141.50;100.00;63355.56;4957454;29;20043;-82
2021/10/18 01:44:22;;;;;;;15.35;7.50;;;;;;;-141.50;100.00;63355.56;4955760;29;20500;-83
2021/10/18 01:46:48;;;;;;;13.18;7.82;;;;;;;-141.50;100.00;63355.56;4959807;28;20062;-80
2021/10/18 01:49:16;;;;;;;14.43;8.05;;;;;;;-141.50;100.00;63355.56;4960243;29;20047;-80
2021/10/18 01:51:42;;;;;;;12.93;7.85;;;;;;;-141.50;100.00;63355.56;4958449;28;20047;-81
2021/10/18 01:54:09;;;;;;;12.95;7.57;;;;;;;-141.50;100.00;63355.56;4957956;29;20071;-78
2021/10/18 01:56:36;;;;;;;14.52;7.93;;;;;;;-141.50;100.00;63355.56;4958171;28;20459;-83
2021/10/18 01:59:03;;;;;;;14.77;8.10;;;;;;;-141.50;100.00;63355.56;4957871;28;20067;-79
2021/10/18 02:01:30;;;;;;;15.80;7.72;;;;;;;-141.50;100.00;63355.56;4965555;28;20047;-80
2021/10/18 02:03:57;;;;;;;16.67;7.65;;;;;;;-141.50;100.00;63355.56;4958145;28;20055;-80
2021/10/18 02:06:23;;;;;;;15.23;7.53;;;;;;;-141.50;100.00;63355.56;4953695;28;20054;-83
2021/10/18 02:08:50;;;;;;;13.13;7.78;;;;;;;-141.50;100.00;63355.56;4958330;28;20043;-82
2021/10/18 02:11:16;;;;;;;13.18;7.50;;;;;;;-141.50;100.00;63355.56;4952967;28;20079;-81
2021/10/18 02:13:43;;;;;;;14.95;8.15;;;;;;;-141.50;100.00;63355.56;4952659;28;20044;-81
2021/10/18 02:16:09;;;;;;;16.42;8.13;;;;;;;-141.50;100.00;63355.56;4950943;28;20043;-81
2021/10/18 02:18:36;;;;;;;15.02;7.28;;;;;;;-141.50;100.00;63355.56;4950808;28;20074;-82
2021/10/18 02:21:03;;;;;;;11.77;7.40;;;;;;;-141.50;100.00;63355.56;4951897;28;20090;-84
2021/10/18 02:23:30;;;;;;;13.70;7.47;;;;;;;-141.50;100.00;63355.56;4950944;28;20036;-82
2021/10/18 02:25:57;;;;;;;15.90;7.80;;;;;;;-141.50;100.00;63355.56;4952655;28;20516;-80
2021/10/18 02:28:24;;;;;;;12.68;7.05;;;;;;;-141.50;100.00;63355.56;4953061;28;20050;-80
2021/10/18 02:30:52;;;;;;;12.13;6.78;;;;;;;-141.50;100.00;63355.56;4952377;28;20042;-83
2021/10/18 02:33:21;;;;;;;14.50;7.22;;;;;;;-141.50;100.00;63355.56;4952477;28;20047;-82
2021/10/18 02:35:48;;;;;;;12.52;7.32;;;;;;;-141.50;100.00;63355.56;4952097;28;20043;-79
2021/10/18 02:38:15;;;;;;;13.85;6.93;;;;;;;-141.50;100.00;63355.56;4953001;28;20047;-83
2021/10/18 02:40:44;;;;;;;14.50;7.10;;;;;;;-141.50;100.00;63355.56;4953397;28;20127;-80
2021/10/18 02:43:10;;;;;;;14.45;7.78;;;;;;;-141.50;100.00;63355.56;4952898;28;20039;-80
2021/10/18 02:45:39;;;;;;;18.17;7.88;;;;;;;-141.50;100.00;63355.56;4953282;28;20036;-82
2021/10/18 02:48:12;;;;;;;14.18;7.32;;;;;;;-141.50;100.00;63355.56;4951880;29;20047;-82
2021/10/18 02:50:39;;;;;;;14.43;7.43;;;;;;;-141.50;100.00;63355.56;4953761;28;20051;-82
2021/10/18 02:53:09;;;;;;;14.35;7.30;;;;;;;-141.50;100.00;63355.56;4952218;28;20036;-84
2021/10/18 02:55:35;;;;;;;15.88;7.70;;;;;;;-141.50;100.00;63355.56;4957428;28;20074;-82
2021/10/18 02:58:02;;;;;;;14.70;7.75;;;;;;;-141.50;100.00;63355.56;4952974;28;20546;-82
2021/10/18 03:00:29;;;;;;;14.48;7.70;;;;;;;-141.50;100.00;63355.56;4953774;28;20055;-80
2021/10/18 03:02:57;;;;;;;13.80;7.93;;;;;;;-141.50;100.00;63355.56;4954201;28;20492;-81
2021/10/18 03:05:33;;;;;;;11.20;6.55;;;;;;;-141.50;100.00;63355.56;4939762;29;20048;-83
2021/10/18 03:08:00;;;;;;;12.73;7.55;;;;;;;-141.50;100.00;63355.56;4954060;28;20050;-82
2021/10/18 03:10:28;;;;;;;15.95;7.57;;;;;;;-141.50;100.00;63355.56;4953929;29;20067;-81
2021/10/18 03:12:54;;;;;;;15.98;7.70;;;;;;;-141.50;100.00;63355.56;4955399;28;20399;-83
2021/10/18 03:15:29;;;;;;;19.67;7.85;;;;;;;-141.50;100.00;63355.56;4960495;29;20054;-80
2021/10/18 03:17:56;;;;;;;13.85;7.10;;;;;;;-141.50;100.00;63355.56;4959190;28;20043;-82
2021/10/18 03:20:22;;;;;;;12.27;7.32;;;;;;;-141.50;100.00;63355.56;4958362;28;20051;-83
2021/10/18 03:22:59;;;;;;;11.73;6.97;;;;;;;-141.50;100.00;63355.56;4954229;29;20066;-84
2021/10/18 03:25:25;;;;;;;15.75;7.38;;;;;;;-141.50;100.00;63355.56;4954431;29;20047;-81
2021/10/18 03:27:52;;;;;;;10.68;6.72;;;;;;;-141.50;100.00;63355.56;4954634;28;20439;-82
2021/10/18 03:30:18;;;;;;;14.30;6.95;;;;;;;-141.50;100.00;63355.56;4954477;29;20043;-82
2021/10/18 03:32:52;;;;;;;9.40;6.20;;;;;;;-141.50;100.00;63355.56;4954168;29;20114;-81
2021/10/18 03:35:23;;;;;;;11.60;6.70;;;;;;;-141.50;100.00;63355.56;4955942;28;20061;-81
2021/10/18 03:37:53;;;;;;;12.23;6.45;;;;;;;-141.50;100.00;63355.56;4955922;28;20047;-82
2021/10/18 03:40:21;;;;;;;12.63;6.70;;;;;;;-141.50;100.00;63355.56;4959164;28;20047;-78
2021/10/18 03:42:48;;;;;;;12.23;6.30;;;;;;;-141.50;100.00;63355.56;4948503;28;20043;-81
2021/10/18 03:45:15;;;;;;;14.48;6.15;;;;;;;-141.50;100.00;63355.56;4953866;28;20051;-81
2021/10/18 03:47:44;;;;;;;15.95;6.63;;;;;;;-141.50;100.00;63355.56;4952671;28;20643;-80
2021/10/18 03:50:11;;;;;;;11.85;6.43;;;;;;;-141.50;100.00;63355.56;4939747;28;20055;-82
2021/10/18 03:52:38;;;;;;;11.82;6.20;;;;;;;-141.50;100.00;63355.56;4960654;23;20074;-78
2021/10/18 03:55:05;;;;;;;12.98;6.57;;;;;;;-141.50;100.00;63355.56;4956850;28;20043;-79
2021/10/18 03:57:35;;;;;;;14.18;6.05;;;;;;;-141.50;100.00;63355.56;4972736;28;20047;-79
2021/10/18 04:00:04;;;;;;;13.07;6.18;;;;;;;-141.50;100.00;63355.56;4974448;28;20046;-78
2021/10/18 04:02:32;;;;;;;15.63;6.70;;;;;;;-141.50;100.00;63355.56;4964826;28;20334;-78
2021/10/18 04:04:59;;;;;;;16.48;7.18;;;;;;;-141.50;100.00;63355.56;4965819;28;20043;-78
2021/10/18 04:07:25;;;;;;;10.32;6.10;;;;;;;-141.50;100.00;63355.56;4965277;28;20054;-78
2021/10/18 04:09:52;;;;;;;13.75;6.30;;;;;;;-141.50;100.00;63355.56;4965862;28;20058;-78
2021/10/18 04:12:19;;;;;;;10.88;6.03;;;;;;;-141.50;100.00;63355.56;4974546;28;20117;-79
2021/10/18 04:14:45;;;;;;;13.05;5.90;;;;;;;-141.50;100.00;63355.56;4973707;28;20062;-78
2021/10/18 04:17:12;;;;;;;11.88;5.70;;;;;;;-141.50;100.00;63355.56;4974437;28;20643;-78
2021/10/18 04:19:38;;;;;;;10.60;5.57;;;;;;;-141.50;100.00;63355.56;4958025;28;20046;-79
2021/10/18 04:22:05;;;;;;;9.45;5.55;;;;;;;-141.50;100.00;63355.56;4974252;28;20039;-78
2021/10/18 04:24:32;;;;;;;8.63;5.63;;;;;;;-141.50;100.00;63355.56;4973039;28;20110;-78
2021/10/18 04:26:58;;;;;;;10.55;5.40;;;;;;;-141.50;100.00;63355.56;4956851;28;20106;-78
2021/10/18 04:29:25;;;;;;;11.40;5.50;;;;;;;-141.50;100.00;63355.56;4970974;28;20050;-77
2021/10/18 04:31:57;;;;;;;9.40;5.43;;;;;;;-141.50;100.00;63355.56;4955271;28;20062;-77
2021/10/18 04:34:27;;;;;;;11.07;5.60;;;;;;;-141.50;100.00;63355.56;4963600;28;20511;-79
2021/10/18 04:36:54;;;;;;;11.75;6.18;;;;;;;-141.50;100.00;63355.56;4973617;28;20263;-79
2021/10/18 04:39:21;;;;;;;14.85;6.22;;;;;;;-141.50;100.00;63355.56;4991604;28;20049;-78
2021/10/18 04:41:48;;;;;;;11.00;5.75;;;;;;;-141.50;100.00;63355.56;4949915;28;20090;-77
2021/10/18 04:44:16;;;;;;;9.93;5.82;;;;;;;-141.50;100.00;63355.56;4936683;29;20134;-79
2021/10/18 04:46:42;;;;;;;10.85;5.30;;;;;;;-141.50;100.00;63355.56;4952812;29;20051;-79
2021/10/18 04:49:09;;;;;;;9.88;5.40;;;;;;;-141.50;100.00;63355.56;4953592;29;20039;-76
2021/10/18 04:51:36;;;;;;;14.25;6.05;;;;;;;-141.50;100.00;63355.56;4953183;28;20047;-79
2021/10/18 04:54:03;;;;;;;11.30;5.93;;;;;;;-141.50;100.00;63355.56;4953489;28;20043;-79
2021/10/18 04:56:29;;;;;;;13.50;5.70;;;;;;;-141.50;100.00;63355.56;4952981;28;20047;-77
2021/10/18 04:58:56;;;;;;;8.48;5.15;;;;;;;-141.50;100.00;63355.56;4935714;29;20043;-79
2021/10/18 05:01:23;;;;;;;9.45;5.35;;;;;;;-141.50;100.00;63355.56;4932670;28;20287;-76
2021/10/18 05:03:50;;;;;;;10.68;4.95;;;;;;;-141.50;100.00;63355.56;4961946;28;20046;-79
2021/10/18 05:06:16;;;;;;;9.38;4.90;;;;;;;-141.50;100.00;63355.56;4977468;28;20101;-79
2021/10/18 05:08:43;;;;;;;12.55;4.95;;;;;;;-141.50;100.00;63355.56;4987644;28;20069;-80
2021/10/18 05:11:12;;;;;;;7.88;4.30;;;;;;;-141.50;100.00;63355.56;4988719;28;20050;-79
2021/10/18 05:13:39;;;;;;;11.93;4.68;;;;;;;-141.50;100.00;63355.56;4969693;28;20050;-79
2021/10/18 05:16:06;;;;;;;9.88;4.75;;;;;;;-141.50;100.00;63355.56;4972635;28;20435;-79
2021/10/18 05:18:32;;;;;;;10.50;4.72;;;;;;;-141.50;100.00;63355.56;4972913;28;20144;-81
2021/10/18 05:21:00;;;;;;;11.38;4.97;;;;;;;-141.50;100.00;63355.56;4976476;28;20053;-79
2021/10/18 05:23:29;;;;;;;11.88;5.25;;;;;;;-141.50;100.00;63355.56;4985358;28;20434;-77
2021/10/18 05:26:00;;;;;;;9.95;4.78;;;;;;;-141.50;100.00;63355.56;4952911;28;20101;-79
2021/10/18 05:28:27;;;;;;;11.85;4.93;;;;;;;-141.50;100.00;63355.56;4953471;28;20182;-79
2021/10/18 05:30:53;;;;;;;7.85;4.97;;;;;;;-141.50;100.00;63355.56;4970983;28;20073;-77
2021/10/18 05:33:20;;;;;;;10.05;4.55;;;;;;;-141.50;100.00;63355.56;4953693;28;20062;-78
2021/10/18 05:35:47;;;;;;;14.35;4.57;;;;;;;-141.50;100.00;63355.56;4949656;28;20043;-77
2021/10/18 05:38:19;;;;;;;9.48;4.32;;;;;;;-141.50;100.00;63355.56;4954611;28;20054;-78
2021/10/18 05:40:51;;;;;;;7.00;4.50;;;;;;;-141.50;100.00;63355.56;4969040;28;20527;-76
2021/10/18 05:43:20;;;;;;;7.80;4.25;;;;;;;-141.50;100.00;63355.56;4975536;28;20035;-79
2021/10/18 05:45:47;;;;;;;13.38;4.95;;;;;;;-141.50;100.00;63355.56;4975010;28;20050;-78
2021/10/18 05:48:15;;;;;;;10.85;5.03;;;;;;;-141.50;100.00;63355.56;4968946;28;20495;-78
2021/10/18 05:50:44;;;;;;;14.93;6.35;;;;;;;-141.50;100.00;63355.56;4978919;28;20300;-78
2021/10/18 05:53:12;;;;;;;15.45;6.13;;;;;;;-141.50;100.00;63355.56;4973198;28;20050;-78
2021/10/18 05:55:40;;;;;;;13.93;5.82;;;;;;;-141.50;100.00;63355.56;4994957;28;20050;-78
2021/10/18 05:58:08;;;;;;;13.00;5.85;;;;;;;-141.50;100.00;63355.56;4992665;28;20047;-78
2021/10/18 06:00:38;;;;;;;16.48;5.35;;;;;;;-141.50;100.00;63355.56;4982106;28;20095;-78
2021/10/18 06:03:04;;;;;;;18.05;6.55;;;;;;;-141.50;100.00;63355.56;4974401;28;20046;-78
2021/10/18 06:05:33;;;;;;;13.52;6.40;;;;;;;-141.50;100.00;63355.56;4973257;28;20446;-78
2021/10/18 06:08:04;;;;;;;14.98;6.38;;;;;;;-141.50;100.00;63355.56;4989571;28;20046;-78
2021/10/18 06:10:31;;;;;;;13.18;5.57;;;;;;;-141.50;100.00;63355.56;4989998;28;20043;-77
2021/10/18 06:12:58;;;;;;;11.88;6.13;;;;;;;-141.50;100.00;63355.56;4972061;28;20042;-77
2021/10/18 06:15:25;;;;;;;12.15;6.03;;;;;;;-141.50;100.00;63355.56;4989063;28;20116;-79
2021/10/18 06:17:51;;;;;;;11.32;5.90;;;;;;;-141.50;100.00;63355.56;4988825;28;20046;-77
2021/10/18 06:20:19;;;;;;;17.75;6.38;;;;;;;-141.50;100.00;63355.56;4971913;28;20399;-79
2021/10/18 06:22:48;;;;;;;13.57;6.72;;;;;;;-141.50;100.00;63355.56;4971943;28;20413;-79
2021/10/18 06:25:15;;;;;;;13.82;6.38;;;;;;;-141.50;100.00;63355.56;4988907;28;20156;-77
2021/10/18 06:27:41;;;;;;;12.57;6.85;;;;;;;-141.50;100.00;63355.56;4988041;28;20112;-76
2021/10/18 06:30:08;;;;;;;18.98;6.75;;;;;;;-141.50;100.00;63355.56;4941131;28;20535;-80
2021/10/18 06:32:35;;;;;;;16.88;6.82;;;;;;;-141.50;100.00;63355.56;4965635;28;20046;-78
2021/10/18 06:35:02;;;;;;;15.27;7.25;;;;;;;-141.50;100.00;63355.56;4967437;28;20034;-78
2021/10/18 06:37:31;;;;;;;19.42;7.45;;;;;;;-141.50;100.00;63355.56;4974581;28;20047;-78
2021/10/18 06:39:57;;;;;;;62.30;20.27;;;;;;;-141.50;100.00;63355.56;4953855;28;20369;-79
2021/10/18 06:42:24;;;;;;;45.63;15.30;;;;;;;-141.50;100.00;63355.56;4971433;28;20047;-78
2021/10/18 06:44:50;;;;;;;43.47;14.45;;;;;;;-141.50;100.00;63355.56;4971310;28;20114;-76
2021/10/18 06:47:18;;;;;;;35.50;11.52;;;;;;;-141.50;100.00;63355.56;4946629;28;20102;-78
2021/10/18 06:49:45;;;;;;;25.52;11.70;;;;;;;-141.50;100.00;63355.56;4954621;28;20049;-79
2021/10/18 06:52:11;;;;;;;24.73;10.45;;;;;;;-141.50;100.00;63355.56;4972246;28;20503;-78
2021/10/18 06:54:40;;;;;;;62.65;26.60;;;;;;;-141.50;100.00;63355.56;4978734;28;20039;-77
2021/10/18 06:57:07;;;;;;;30.55;12.65;;;;;;;-141.50;100.00;63355.56;4970113;28;20046;-78
2021/10/18 06:59:34;;;;;;;30.63;13.02;;;;;;;-141.50;100.00;63355.56;4953283;28;20628;-78
2021/10/18 07:02:01;;;;;;;28.92;13.30;;;;;;;-141.50;100.00;63355.56;4940043;28;20047;-77
2021/10/18 07:04:29;;;;;;;32.92;13.57;;;;;;;-141.50;100.00;63355.56;4929831;29;20325;-77
2021/10/18 07:06:57;;;;;;;24.92;12.07;;;;;;;-141.50;100.00;63355.56;4947520;28;20133;-77
2021/10/18 07:09:24;;;;;;;19.85;9.50;;;;;;;-141.50;100.00;63355.56;4974162;28;20043;-79
2021/10/18 07:11:51;;;;;;;21.33;7.50;;;;;;;-141.50;100.00;63355.56;4954855;28;20050;-77
2021/10/18 07:14:17;;;;;;;15.00;6.65;;;;;;;-141.50;100.00;63355.56;4969823;28;20061;-78
2021/10/18 07:16:44;;;;;;;18.02;6.35;;;;;;;-141.50;100.00;63355.56;4954424;28;20109;-77
2021/10/18 07:19:11;;;;;;;15.57;6.78;;;;;;;-141.50;100.00;63355.56;4973096;28;20094;-79
2021/10/18 07:21:37;;;;;;;13.65;5.95;;;;;;;-141.50;100.00;63355.56;4955946;28;20053;-78
2021/10/18 07:24:05;;;;;;;11.98;6.43;;;;;;;-141.50;100.00;63355.56;4973511;28;20047;-78
2021/10/18 07:26:32;;;;;;;14.45;5.63;;;;;;;-141.50;100.00;63355.56;4946939;28;20098;-78
2021/10/18 07:29:07;;;;;;;17.75;5.85;;;;;;;-141.50;100.00;63355.56;4946070;29;20098;-78
2021/10/18 07:31:34;;;;;;;15.85;5.43;;;;;;;-141.50;100.00;63355.56;4954091;29;20321;-78
2021/10/18 07:34:02;;;;;;;14.48;5.30;;;;;;;-141.50;100.00;63355.56;4952758;28;20032;-78
2021/10/18 07:36:34;;;;;;;12.95;5.60;;;;;;;-141.50;100.00;63355.56;4956949;28;20047;-78
2021/10/18 07:39:05;;;;;;;13.27;4.90;;;;;;;-141.50;100.00;63355.56;4955062;28;20050;-78
2021/10/18 07:41:32;;;;;;;13.68;5.47;;;;;;;-141.50;100.00;63355.56;4966213;28;20097;-78
2021/10/18 07:43:59;;;;;;;11.75;5.00;;;;;;;-141.50;100.00;63355.56;4980195;28;20039;-78
2021/10/18 07:46:26;;;;;;;14.75;5.70;;;;;;;-141.50;100.00;63355.56;4970709;28;20474;-78
2021/10/18 07:48:53;;;;;;;16.67;6.00;;;;;;;-141.50;100.00;63355.56;4954680;28;20042;-78
2021/10/18 07:51:19;;;;;;;16.17;6.00;;;;;;;-141.50;100.00;63355.56;4954832;28;20511;-79
2021/10/18 07:53:46;;;;;;;9.15;3.97;;;;;;;-141.50;100.00;63355.56;4973480;28;20050;-78
2021/10/18 07:56:12;;;;;;;9.00;3.53;;;;;;;-141.50;100.00;63355.56;4989983;28;20038;-78
2021/10/18 07:58:40;;;;;;;7.05;2.70;;;;;;;-141.50;100.00;63355.56;4991454;28;20092;-78
2021/10/18 08:01:06;;;;;;;8.63;2.83;;;;;;;-141.50;100.00;63355.56;4974479;28;20050;-77
2021/10/18 08:03:33;;;;;;;9.13;2.80;;;;;;;-141.50;100.00;63355.56;4991131;28;20092;-77
2021/10/18 08:06:00;;;;;;;7.68;2.20;;;;;;;-141.50;100.00;63355.56;4991540;28;20046;-78
2021/10/18 08:08:30;;;;;;;8.27;2.40;;;;;;;-141.50;100.00;63355.56;4991767;28;20414;-78
2021/10/18 08:10:57;;;;;;;5.35;2.20;;;;;;;-141.50;100.00;63355.56;4991881;28;20054;-78
2021/10/18 08:13:24;;;;;;;7.57;2.70;;;;;;;-141.50;100.00;63355.56;4992059;28;20043;-78
2021/10/18 08:15:51;;;;;;;6.10;2.55;;;;;;;-141.50;100.00;63355.56;4974980;28;20470;-78
2021/10/18 08:18:18;;;;;;;5.80;2.20;;;;;;;-141.50;100.00;63355.56;4992520;28;20220;-78
2021/10/18 08:20:46;;;;;;;4.93;2.28;;;;;;;-141.50;100.00;63355.56;4993009;28;20529;-77
2021/10/18 08:23:13;;;;;;;4.45;2.15;;;;;;;-141.50;100.00;63355.56;5031401;23;20121;-85
2021/10/18 08:25:41;;;;;;;8.73;2.45;;;;;;;-141.50;100.00;63355.56;4959717;28;20046;-82
2021/10/18 08:28:09;;;;;;;6.05;2.15;;;;;;;-141.50;100.00;63355.56;4977882;28;20063;-83
2021/10/18 08:30:36;;;;;;;3.67;2.00;;;;;;;-141.50;100.00;63355.56;4946434;28;20077;-81
2021/10/18 08:33:03;;;;;;;8.32;2.75;;;;;;;-141.50;100.00;63355.56;4944776;28;20050;-84
2021/10/18 08:35:31;;;;;;;8.82;2.38;;;;;;;-141.50;100.00;63355.56;4961223;28;20050;-82
2021/10/18 08:45:52;;;;;;;5.15;2.30;;;;;;;-141.50;100.00;63355.56;4980011;28;20424;-83
2021/10/18 08:48:29;;;;;;;7.63;2.22;;;;;;;-141.50;100.00;63355.56;4978259;28;20454;-83
2021/10/18 08:50:56;;;;;;;4.20;2.22;;;;;;;-141.50;100.00;63355.56;4963509;28;20117;-83
2021/10/18 08:53:23;;;;;;;5.20;2.10;;;;;;;-141.50;100.00;63355.56;4959766;28;20050;-83
2021/10/18 08:55:49;;;;;;;6.45;2.00;;;;;;;-141.50;100.00;63355.56;4960720;28;20065;-83
2021/10/18 08:58:17;;;;;;;6.05;1.95;;;;;;;-141.50;100.00;63355.56;4978283;28;20046;-84
2021/10/18 09:00:48;;;;;;;3.50;1.90;;;;;;;-141.50;100.00;63355.56;4994710;28;20038;-85
2021/10/18 09:03:16;;;;;;;4.57;2.45;;;;;;;-141.50;100.00;63355.56;4996352;28;20050;-83
2021/10/18 09:05:45;;;;;;;5.55;2.35;;;;;;;-141.50;100.00;63355.56;4960630;28;20050;-83
2021/10/18 09:08:33;;;;;;;5.65;2.25;;;;;;;-141.50;100.00;63355.56;4977209;28;20077;-83
2021/10/18 09:11:14;;;;;;;3.75;2.40;;;;;;;-141.50;100.00;63355.56;4977965;28;20042;-82
2021/10/18 09:13:51;;;;;;;5.35;2.65;;;;;;;-141.50;100.00;63355.56;4959258;28;20063;-84
2021/10/18 09:16:25;;;;;;;6.82;2.80;;;;;;;-141.50;100.00;63355.56;4975505;28;20061;-85
2021/10/18 09:19:06;;;;;;;6.63;2.65;;;;;;;-141.50;100.00;63355.56;4976168;28;20134;-84
2021/10/18 09:21:36;;;;;;;4.78;2.90;;;;;;;-141.50;100.00;63355.56;4996244;28;20078;-83
2021/10/18 09:24:04;;;;;;;4.57;2.97;;;;;;;-141.50;100.00;63355.56;4995866;28;20050;-84
2021/10/18 09:26:32;;;;;;;6.35;3.38;;;;;;;-141.50;100.00;63355.56;4978202;28;20073;-85
2021/10/18 09:29:17;;;;;;;5.35;3.53;;;;;;;-141.50;100.00;63355.56;4980430;28;20594;-83
2021/10/18 09:32:00;;;;;;;5.68;3.63;;;;;;;-141.50;100.00;63355.56;4963997;28;20054;-83
2021/10/18 09:34:34;;;;;;;;;;;;;;;-141.50;100.00;63355.56;4998413;28;20040;-83
2021/10/18 09:37:09;;;;;;;7.05;3.53;;;;;;;-141.50;100.00;63355.56;4978097;28;19925;-83
2021/10/18 09:39:48;;;;;;;4.78;3.45;;;;;;;-141.50;100.00;63355.56;4993189;28;20049;-85
2021/10/18 09:42:19;;;;;;;6.68;3.75;;;;;;;-141.50;100.00;63355.56;4962328;28;20422;-84
2021/10/18 10:54:37;;;;;;;6.80;4.57;;;;;;;-141.50;100.00;63355.56;4963498;28;20375;-82
2021/10/18 10:57:11;;;;;;;6.18;4.35;;;;;;;-141.50;100.00;63355.56;4959336;28;20511;-83
2021/10/18 10:59:50;;;;;;;7.45;4.32;;;;;;;-141.50;100.00;63355.56;4974234;28;20438;-82
2021/10/18 11:02:27;;;;;;;7.28;4.15;;;;;;;-141.50;100.00;63355.56;4978555;28;20383;-83
2021/10/18 11:04:54;;;;;;;8.32;3.60;;;;;;;-141.50;100.00;63355.56;4974627;28;20113;-84
2021/10/18 11:07:41;;;;;;;7.07;3.67;;;;;;;-141.50;100.00;63355.56;4973481;28;20054;-82
2021/10/18 11:10:08;;;;;;;6.47;3.92;;;;;;;-141.50;100.00;63355.56;4935995;29;20062;-83
2021/10/18 11:12:48;;;;;;;5.53;3.83;;;;;;;-141.50;100.00;63355.56;4954041;28;20290;-84
2021/10/18 11:15:18;;;;;;;7.07;3.75;;;;;;;-141.50;100.00;63355.56;4973804;28;20483;-84
2021/10/18 11:17:50;;;;;;;5.07;3.70;;;;;;;-141.50;100.00;63355.56;4972107;28;20038;-83
2021/10/18 11:20:23;;;;;;;4.78;3.83;;;;;;;-141.50;100.00;63355.56;4994016;28;20117;-83
2021/10/18 11:22:56;;;;;;;5.35;3.85;;;;;;;-141.50;100.00;63355.56;4963194;28;20054;-83
2021/10/18 11:25:28;;;;;;;5.68;3.47;;;;;;;-141.50;100.00;63355.56;4957246;28;20058;-82
2021/10/18 11:27:57;;;;;;;4.60;3.25;;;;;;;-141.50;100.00;63355.56;4961433;28;20051;-82
2021/10/18 11:30:28;;;;;;;4.05;3.30;;;;;;;-141.50;100.00;63355.56;4938899;28;20054;-82
2021/10/18 11:32:58;;;;;;;5.72;3.17;;;;;;;-141.50;100.00;63355.56;4938138;28;20561;-83
2021/10/18 11:35:27;;;;;;;4.25;3.10;;;;;;;-141.50;100.00;63355.56;4953530;28;20050;-81
2021/10/18 11:38:09;;;;;;;7.65;4.13;;;;;;;-141.50;100.00;63355.56;4966568;28;20067;-83
2021/10/18 11:40:43;;;;;;;6.13;3.88;;;;;;;-141.50;100.00;63355.56;4926343;29;20055;-82
2021/10/18 11:43:16;;;;;;;6.22;3.50;;;;;;;-141.50;100.00;63355.56;4927301;29;20047;-84
2021/10/18 11:45:45;;;;;;;7.07;4.03;;;;;;;-141.50;100.00;63355.56;4957450;28;20031;-84
2021/10/18 11:48:32;;;;;;;6.95;3.75;;;;;;;-141.50;100.00;63355.56;4956297;28;20087;-83
2021/10/18 11:51:01;;;;;;;7.82;4.07;;;;;;;-141.50;100.00;63355.56;4950825;28;20059;-82
2021/10/18 11:53:40;;;;;;;6.70;3.75;;;;;;;-141.50;100.00;63355.56;4954842;28;20051;-85
2021/10/18 11:56:07;;;;;;;14.10;3.78;;;;;;;-141.50;100.00;63355.56;4941264;29;20071;-82
2021/10/18 11:58:37;;;;;;;8.25;4.50;;;;;;;-141.50;100.00;63355.56;4968037;28;20347;-82
2021/10/18 12:01:06;;;;;;;8.38;3.88;;;;;;;-141.50;100.00;63355.56;4958988;28;20061;-84
2021/10/18 12:03:35;;;;;;;5.22;3.50;;;;;;;-141.50;100.00;63355.56;4958530;28;20045;-82
2021/10/18 12:06:04;;;;;;;6.03;3.95;;;;;;;-141.50;100.00;63355.56;4975585;28;20526;-81
2021/10/18 12:08:33;;;;;;;6.80;4.40;;;;;;;-141.50;100.00;63355.56;4944280;28;20061;-82
2021/10/18 12:11:03;;;;;;;5.68;4.15;;;;;;;-141.50;100.00;63355.56;4961144;28;20273;-83
2021/10/18 12:13:38;;;;;;;4.78;3.53;;;;;;;-141.50;100.00;63355.56;4959770;28;20054;-83
2021/10/18 12:16:06;;;;;;;5.65;3.70;;;;;;;-141.50;100.00;63355.56;4959972;28;20043;-82
2021/10/18 12:18:36;;;;;;;6.60;3.80;;;;;;;-141.50;100.00;63355.56;4961169;28;20129;-82
2021/10/18 12:21:11;;;;;;;8.15;3.60;;;;;;;-141.50;100.00;63355.56;4959544;28;20046;-83
2021/10/18 12:23:44;;;;;;;6.68;4.65;;;;;;;-141.50;100.00;63355.56;4977347;28;20043;-82
2021/10/18 12:26:36;;;;;;;7.43;4.85;;;;;;;-141.50;100.00;63355.56;4944263;28;20464;-82
2021/10/18 12:29:14;;;;;;;7.53;6.00;;;;;;;-141.50;100.00;63355.56;4936709;28;20121;-84